sensor_id;sensor_type;location;lat;lon;timestamp;P1;durP1;ratioP1;P2;durP2;ratioP2
39848;SDS011;25518;47.878;15.914;2022-10-16T00:01:43;0.60;;;0.40;;
39848;SDS011;25518;47.878;15.914;2022-10-16T00:04:09;1.10;;;0.50;;
39848;SDS011;25518;47.878;15.914;2022-10-16T00:06:35;1.65;;;0.50;;
39848;SDS011;25518;47.878;15.914;2022-10-16T00:09:02;0.90;;;0.50;;
39848;SDS011;25518;47.878;15.914;2022-10-16T00:11:30;0.70;;;0.40;;
39848;SDS011;25518;47.878;15.914;2022-10-16T00:13:59;0.80;;;0.50;;
39848;SDS011;25518;47.878;15.914;2022-10-16T00:16:26;0.90;;;0.40;;
39848;SDS011;25518;47.878;15.914;2022-10-16T00:18:52;1.40;;;0.40;;
39848;SDS011;25518;47.878;15.914;2022-10-16T00:21:20;0.68;;;0.50;;
39848;SDS011;25518;47.878;15.914;2022-10-16T00:23:50;1.80;;;0.50;;
39848;SDS011;25518;47.878;15.914;2022-10-16T00:26:16;2.05;;;0.38;;
39848;SDS011;25518;47.878;15.914;2022-10-16T00:28:45;1.70;;;0.50;;
39848;SDS011;25518;47.878;15.914;2022-10-16T00:31:11;0.50;;;0.30;;
39848;SDS011;25518;47.878;15.914;2022-10-16T00:33:38;1.58;;;0.40;;
39848;SDS011;25518;47.878;15.914;2022-10-16T00:36:05;0.90;;;0.40;;
39848;SDS011;25518;47.878;15.914;2022-10-16T00:38:32;0.63;;;0.40;;
39848;SDS011;25518;47.878;15.914;2022-10-16T00:40:58;1.10;;;0.40;;
39848;SDS011;25518;47.878;15.914;2022-10-16T00:43:56;2.03;;;0.45;;
39848;SDS011;25518;47.878;15.914;2022-10-16T00:46:41;1.35;;;0.60;;
39848;SDS011;25518;47.878;15.914;2022-10-16T00:49:27;0.90;;;0.60;;
39848;SDS011;25518;47.878;15.914;2022-10-16T00:51:45;2.00;;;1.00;;
39848;SDS011;25518;47.878;15.914;2022-10-16T00:54:28;0.70;;;0.55;;
39848;SDS011;25518;47.878;15.914;2022-10-16T00:56:56;0.60;;;0.40;;
39848;SDS011;25518;47.878;15.914;2022-10-16T00:59:25;0.60;;;0.50;;
39848;SDS011;25518;47.878;15.914;2022-10-16T01:01:52;0.88;;;0.40;;
39848;SDS011;25518;47.878;15.914;2022-10-16T01:04:19;1.63;;;0.47;;
39848;SDS011;25518;47.878;15.914;2022-10-16T01:07:35;0.68;;;0.30;;
39848;SDS011;25518;47.878;15.914;2022-10-16T01:09:37;0.47;;;0.30;;
39848;SDS011;25518;47.878;15.914;2022-10-16T01:12:11;1.67;;;0.80;;
39848;SDS011;25518;47.878;15.914;2022-10-16T01:17:10;0.45;;;0.35;;
39848;SDS011;25518;47.878;15.914;2022-10-16T01:20:14;0.55;;;0.30;;
39848;SDS011;25518;47.878;15.914;2022-10-16T01:22:28;0.55;;;0.32;;
39848;SDS011;25518;47.878;15.914;2022-10-16T01:24:56;0.60;;;0.32;;
39848;SDS011;25518;47.878;15.914;2022-10-16T01:27:26;1.27;;;0.60;;
39848;SDS011;25518;47.878;15.914;2022-10-16T01:29:54;0.63;;;0.35;;
39848;SDS011;25518;47.878;15.914;2022-10-16T01:32:31;0.50;;;0.40;;
39848;SDS011;25518;47.878;15.914;2022-10-16T01:35:03;0.80;;;0.30;;
39848;SDS011;25518;47.878;15.914;2022-10-16T01:37:34;0.40;;;0.25;;
39848;SDS011;25518;47.878;15.914;2022-10-16T01:40:02;0.90;;;0.30;;
39848;SDS011;25518;47.878;15.914;2022-10-16T01:42:32;0.68;;;0.32;;
39848;SDS011;25518;47.878;15.914;2022-10-16T01:45:00;1.55;;;0.35;;
39848;SDS011;25518;47.878;15.914;2022-10-16T01:47:28;0.22;;;0.22;;
39848;SDS011;25518;47.878;15.914;2022-10-16T01:49:55;0.70;;;0.30;;
39848;SDS011;25518;47.878;15.914;2022-10-16T01:52:24;0.97;;;0.40;;
39848;SDS011;25518;47.878;15.914;2022-10-16T01:54:52;1.60;;;0.40;;
39848;SDS011;25518;47.878;15.914;2022-10-16T01:57:20;3.00;;;0.30;;
39848;SDS011;25518;47.878;15.914;2022-10-16T01:59:48;0.40;;;0.25;;
39848;SDS011;25518;47.878;15.914;2022-10-16T02:02:16;1.08;;;0.30;;
39848;SDS011;25518;47.878;15.914;2022-10-16T02:04:46;0.40;;;0.30;;
39848;SDS011;25518;47.878;15.914;2022-10-16T02:07:13;0.55;;;0.40;;
39848;SDS011;25518;47.878;15.914;2022-10-16T02:09:39;0.50;;;0.30;;
39848;SDS011;25518;47.878;15.914;2022-10-16T02:12:09;0.90;;;0.32;;
39848;SDS011;25518;47.878;15.914;2022-10-16T02:14:37;3.00;;;0.45;;
39848;SDS011;25518;47.878;15.914;2022-10-16T02:17:10;1.20;;;0.50;;
39848;SDS011;25518;47.878;15.914;2022-10-16T02:19:36;0.77;;;0.50;;
39848;SDS011;25518;47.878;15.914;2022-10-16T02:22:03;0.90;;;0.40;;
39848;SDS011;25518;47.878;15.914;2022-10-16T02:24:33;1.05;;;0.43;;
39848;SDS011;25518;47.878;15.914;2022-10-16T02:27:02;0.95;;;0.40;;
39848;SDS011;25518;47.878;15.914;2022-10-16T02:29:29;2.17;;;0.30;;
39848;SDS011;25518;47.878;15.914;2022-10-16T02:31:58;2.03;;;0.40;;
39848;SDS011;25518;47.878;15.914;2022-10-16T02:34:26;0.90;;;0.30;;
39848;SDS011;25518;47.878;15.914;2022-10-16T02:36:53;0.80;;;0.70;;
39848;SDS011;25518;47.878;15.914;2022-10-16T02:39:20;2.40;;;0.70;;
39848;SDS011;25518;47.878;15.914;2022-10-16T02:41:47;2.08;;;0.60;;
39848;SDS011;25518;47.878;15.914;2022-10-16T02:44:13;2.53;;;0.88;;
39848;SDS011;25518;47.878;15.914;2022-10-16T02:46:39;0.73;;;0.50;;
39848;SDS011;25518;47.878;15.914;2022-10-16T02:49:06;1.20;;;0.40;;
39848;SDS011;25518;47.878;15.914;2022-10-16T02:51:32;0.52;;;0.25;;
39848;SDS011;25518;47.878;15.914;2022-10-16T02:53:58;0.60;;;0.47;;
39848;SDS011;25518;47.878;15.914;2022-10-16T02:56:24;2.08;;;0.50;;
39848;SDS011;25518;47.878;15.914;2022-10-16T02:58:50;1.55;;;0.40;;
39848;SDS011;25518;47.878;15.914;2022-10-16T03:01:17;0.60;;;0.43;;
39848;SDS011;25518;47.878;15.914;2022-10-16T03:18:19;1.55;;;0.65;;
39848;SDS011;25518;47.878;15.914;2022-10-16T03:20:46;3.38;;;0.70;;
39848;SDS011;25518;47.878;15.914;2022-10-16T03:23:12;2.30;;;0.57;;
39848;SDS011;25518;47.878;15.914;2022-10-16T03:25:39;1.65;;;0.40;;
39848;SDS011;25518;47.878;15.914;2022-10-16T03:28:05;1.90;;;0.77;;
39848;SDS011;25518;47.878;15.914;2022-10-16T03:30:32;0.73;;;0.40;;
39848;SDS011;25518;47.878;15.914;2022-10-16T03:32:58;2.60;;;1.70;;
39848;SDS011;25518;47.878;15.914;2022-10-16T03:35:24;1.50;;;0.83;;
39848;SDS011;25518;47.878;15.914;2022-10-16T03:37:51;0.90;;;0.43;;
39848;SDS011;25518;47.878;15.914;2022-10-16T03:40:18;1.00;;;0.50;;
39848;SDS011;25518;47.878;15.914;2022-10-16T03:42:44;0.80;;;0.40;;
39848;SDS011;25518;47.878;15.914;2022-10-16T03:45:11;1.02;;;0.50;;
39848;SDS011;25518;47.878;15.914;2022-10-16T03:47:37;6.07;;;0.77;;
39848;SDS011;25518;47.878;15.914;2022-10-16T03:50:04;0.57;;;0.40;;
39848;SDS011;25518;47.878;15.914;2022-10-16T03:52:30;0.70;;;0.50;;
39848;SDS011;25518;47.878;15.914;2022-10-16T03:54:58;1.13;;;0.50;;
39848;SDS011;25518;47.878;15.914;2022-10-16T03:57:24;2.10;;;0.57;;
39848;SDS011;25518;47.878;15.914;2022-10-16T03:59:50;1.67;;;0.85;;
39848;SDS011;25518;47.878;15.914;2022-10-16T04:02:16;0.80;;;0.40;;
39848;SDS011;25518;47.878;15.914;2022-10-16T04:04:43;1.08;;;0.55;;
39848;SDS011;25518;47.878;15.914;2022-10-16T04:07:09;1.27;;;0.60;;
39848;SDS011;25518;47.878;15.914;2022-10-16T04:09:35;1.00;;;0.60;;
39848;SDS011;25518;47.878;15.914;2022-10-16T04:12:01;1.08;;;0.60;;
39848;SDS011;25518;47.878;15.914;2022-10-16T04:14:28;0.73;;;0.40;;
39848;SDS011;25518;47.878;15.914;2022-10-16T04:16:54;1.70;;;0.50;;
39848;SDS011;25518;47.878;15.914;2022-10-16T04:19:20;1.40;;;0.50;;
39848;SDS011;25518;47.878;15.914;2022-10-16T04:21:46;0.77;;;0.47;;
39848;SDS011;25518;47.878;15.914;2022-10-16T04:24:13;3.50;;;1.23;;
39848;SDS011;25518;47.878;15.914;2022-10-16T04:26:39;1.35;;;0.57;;
39848;SDS011;25518;47.878;15.914;2022-10-16T04:29:05;1.60;;;0.50;;
39848;SDS011;25518;47.878;15.914;2022-10-16T04:31:32;3.17;;;0.70;;
39848;SDS011;25518;47.878;15.914;2022-10-16T04:33:58;4.07;;;0.80;;
39848;SDS011;25518;47.878;15.914;2022-10-16T04:36:25;1.95;;;0.60;;
39848;SDS011;25518;47.878;15.914;2022-10-16T04:38:51;2.60;;;0.70;;
39848;SDS011;25518;47.878;15.914;2022-10-16T04:41:17;1.95;;;0.80;;
39848;SDS011;25518;47.878;15.914;2022-10-16T04:43:44;1.02;;;0.50;;
39848;SDS011;25518;47.878;15.914;2022-10-16T04:46:10;1.38;;;0.60;;
39848;SDS011;25518;47.878;15.914;2022-10-16T04:48:36;1.13;;;0.60;;
39848;SDS011;25518;47.878;15.914;2022-10-16T04:51:02;0.90;;;0.52;;
39848;SDS011;25518;47.878;15.914;2022-10-16T04:53:28;0.98;;;0.60;;
39848;SDS011;25518;47.878;15.914;2022-10-16T04:55:55;1.08;;;0.60;;
39848;SDS011;25518;47.878;15.914;2022-10-16T04:58:22;1.95;;;0.65;;
39848;SDS011;25518;47.878;15.914;2022-10-16T05:00:48;1.77;;;1.00;;
39848;SDS011;25518;47.878;15.914;2022-10-16T05:03:15;1.23;;;0.53;;
39848;SDS011;25518;47.878;15.914;2022-10-16T05:05:42;1.00;;;0.60;;
39848;SDS011;25518;47.878;15.914;2022-10-16T05:08:10;3.20;;;0.80;;
39848;SDS011;25518;47.878;15.914;2022-10-16T05:10:36;1.25;;;0.60;;
39848;SDS011;25518;47.878;15.914;2022-10-16T05:13:02;3.00;;;1.17;;
39848;SDS011;25518;47.878;15.914;2022-10-16T05:15:29;3.10;;;0.90;;
39848;SDS011;25518;47.878;15.914;2022-10-16T05:17:55;1.63;;;0.90;;
39848;SDS011;25518;47.878;15.914;2022-10-16T05:20:22;2.90;;;1.30;;
39848;SDS011;25518;47.878;15.914;2022-10-16T05:22:48;1.73;;;1.10;;
39848;SDS011;25518;47.878;15.914;2022-10-16T05:25:15;4.88;;;1.42;;
39848;SDS011;25518;47.878;15.914;2022-10-16T05:27:41;1.60;;;0.93;;
39848;SDS011;25518;47.878;15.914;2022-10-16T05:30:08;0.98;;;0.50;;
39848;SDS011;25518;47.878;15.914;2022-10-16T05:32:34;4.60;;;0.70;;
39848;SDS011;25518;47.878;15.914;2022-10-16T05:35:00;1.70;;;0.80;;
39848;SDS011;25518;47.878;15.914;2022-10-16T05:37:27;2.40;;;1.10;;
39848;SDS011;25518;47.878;15.914;2022-10-16T05:39:53;1.03;;;0.70;;
39848;SDS011;25518;47.878;15.914;2022-10-16T05:42:19;1.95;;;0.95;;
39848;SDS011;25518;47.878;15.914;2022-10-16T05:44:46;5.35;;;1.20;;
39848;SDS011;25518;47.878;15.914;2022-10-16T05:47:12;4.40;;;1.10;;
39848;SDS011;25518;47.878;15.914;2022-10-16T05:49:39;3.17;;;1.17;;
39848;SDS011;25518;47.878;15.914;2022-10-16T05:52:06;6.10;;;1.20;;
39848;SDS011;25518;47.878;15.914;2022-10-16T05:54:32;1.73;;;0.90;;
39848;SDS011;25518;47.878;15.914;2022-10-16T05:56:58;1.75;;;0.80;;
39848;SDS011;25518;47.878;15.914;2022-10-16T05:59:25;2.20;;;0.90;;
39848;SDS011;25518;47.878;15.914;2022-10-16T06:01:51;3.45;;;1.20;;
39848;SDS011;25518;47.878;15.914;2022-10-16T06:04:18;4.45;;;1.35;;
39848;SDS011;25518;47.878;15.914;2022-10-16T06:06:44;3.28;;;1.10;;
39848;SDS011;25518;47.878;15.914;2022-10-16T06:09:11;3.40;;;1.50;;
39848;SDS011;25518;47.878;15.914;2022-10-16T06:11:37;4.60;;;2.30;;
39848;SDS011;25518;47.878;15.914;2022-10-16T06:14:03;4.32;;;2.25;;
39848;SDS011;25518;47.878;15.914;2022-10-16T06:16:33;4.13;;;2.28;;
39848;SDS011;25518;47.878;15.914;2022-10-16T06:18:59;3.13;;;1.80;;
39848;SDS011;25518;47.878;15.914;2022-10-16T06:21:26;2.10;;;0.77;;
39848;SDS011;25518;47.878;15.914;2022-10-16T06:23:54;1.35;;;0.80;;
39848;SDS011;25518;47.878;15.914;2022-10-16T06:26:21;3.37;;;0.90;;
39848;SDS011;25518;47.878;15.914;2022-10-16T06:28:48;1.75;;;0.98;;
39848;SDS011;25518;47.878;15.914;2022-10-16T06:31:15;4.53;;;1.00;;
39848;SDS011;25518;47.878;15.914;2022-10-16T06:33:41;1.35;;;0.70;;
39848;SDS011;25518;47.878;15.914;2022-10-16T06:36:09;4.25;;;1.88;;
39848;SDS011;25518;47.878;15.914;2022-10-16T06:38:36;3.03;;;1.48;;
39848;SDS011;25518;47.878;15.914;2022-10-16T06:41:02;3.00;;;1.30;;
39848;SDS011;25518;47.878;15.914;2022-10-16T06:43:29;2.63;;;1.40;;
39848;SDS011;25518;47.878;15.914;2022-10-16T06:45:57;2.17;;;1.30;;
39848;SDS011;25518;47.878;15.914;2022-10-16T06:48:24;4.03;;;1.30;;
39848;SDS011;25518;47.878;15.914;2022-10-16T06:50:55;2.73;;;1.40;;
39848;SDS011;25518;47.878;15.914;2022-10-16T06:53:22;2.63;;;1.00;;
39848;SDS011;25518;47.878;15.914;2022-10-16T06:55:49;2.20;;;1.00;;
39848;SDS011;25518;47.878;15.914;2022-10-16T06:58:15;2.92;;;1.35;;
39848;SDS011;25518;47.878;15.914;2022-10-16T07:00:41;2.57;;;1.20;;
39848;SDS011;25518;47.878;15.914;2022-10-16T07:03:07;3.33;;;1.00;;
39848;SDS011;25518;47.878;15.914;2022-10-16T07:05:38;2.33;;;1.13;;
39848;SDS011;25518;47.878;15.914;2022-10-16T07:08:04;2.28;;;1.20;;
39848;SDS011;25518;47.878;15.914;2022-10-16T07:10:31;2.88;;;1.17;;
39848;SDS011;25518;47.878;15.914;2022-10-16T07:12:58;3.30;;;1.35;;
39848;SDS011;25518;47.878;15.914;2022-10-16T07:15:24;1.93;;;1.07;;
39848;SDS011;25518;47.878;15.914;2022-10-16T07:17:51;5.25;;;1.10;;
39848;SDS011;25518;47.878;15.914;2022-10-16T07:20:17;2.00;;;1.10;;
39848;SDS011;25518;47.878;15.914;2022-10-16T07:22:44;2.20;;;1.02;;
39848;SDS011;25518;47.878;15.914;2022-10-16T07:25:11;2.13;;;1.20;;
39848;SDS011;25518;47.878;15.914;2022-10-16T07:27:37;1.92;;;1.05;;
39848;SDS011;25518;47.878;15.914;2022-10-16T07:30:04;1.65;;;1.00;;
39848;SDS011;25518;47.878;15.914;2022-10-16T07:32:31;1.38;;;0.70;;
39848;SDS011;25518;47.878;15.914;2022-10-16T07:34:57;1.90;;;0.80;;
39848;SDS011;25518;47.878;15.914;2022-10-16T07:37:23;2.85;;;1.00;;
39848;SDS011;25518;47.878;15.914;2022-10-16T07:39:50;2.75;;;0.90;;
39848;SDS011;25518;47.878;15.914;2022-10-16T07:42:16;1.40;;;0.90;;
39848;SDS011;25518;47.878;15.914;2022-10-16T07:44:43;2.15;;;1.02;;
39848;SDS011;25518;47.878;15.914;2022-10-16T07:47:09;1.80;;;0.93;;
39848;SDS011;25518;47.878;15.914;2022-10-16T07:49:35;1.92;;;0.93;;
39848;SDS011;25518;47.878;15.914;2022-10-16T07:52:01;4.40;;;1.05;;
39848;SDS011;25518;47.878;15.914;2022-10-16T07:54:28;2.50;;;1.20;;
39848;SDS011;25518;47.878;15.914;2022-10-16T07:56:54;2.20;;;0.93;;
39848;SDS011;25518;47.878;15.914;2022-10-16T07:59:20;1.85;;;0.90;;
39848;SDS011;25518;47.878;15.914;2022-10-16T08:01:46;1.80;;;1.00;;
39848;SDS011;25518;47.878;15.914;2022-10-16T08:04:12;3.42;;;1.02;;
39848;SDS011;25518;47.878;15.914;2022-10-16T08:06:39;2.25;;;0.85;;
39848;SDS011;25518;47.878;15.914;2022-10-16T08:09:07;4.20;;;1.30;;
39848;SDS011;25518;47.878;15.914;2022-10-16T08:11:33;3.13;;;1.20;;
39848;SDS011;25518;47.878;15.914;2022-10-16T08:14:00;4.30;;;1.30;;
39848;SDS011;25518;47.878;15.914;2022-10-16T08:16:26;2.33;;;1.27;;
39848;SDS011;25518;47.878;15.914;2022-10-16T08:18:53;3.03;;;1.20;;
39848;SDS011;25518;47.878;15.914;2022-10-16T08:21:20;2.80;;;1.30;;
39848;SDS011;25518;47.878;15.914;2022-10-16T08:23:48;2.47;;;1.23;;
39848;SDS011;25518;47.878;15.914;2022-10-16T08:26:14;3.72;;;1.20;;
39848;SDS011;25518;47.878;15.914;2022-10-16T08:28:40;2.05;;;1.13;;
39848;SDS011;25518;47.878;15.914;2022-10-16T08:33:34;2.75;;;1.35;;
39848;SDS011;25518;47.878;15.914;2022-10-16T08:36:01;5.03;;;1.70;;
39848;SDS011;25518;47.878;15.914;2022-10-16T08:38:28;4.45;;;1.65;;
39848;SDS011;25518;47.878;15.914;2022-10-16T08:40:55;3.53;;;1.70;;
39848;SDS011;25518;47.878;15.914;2022-10-16T08:48:44;5.07;;;1.75;;
39848;SDS011;25518;47.878;15.914;2022-10-16T08:51:19;3.78;;;1.80;;
39848;SDS011;25518;47.878;15.914;2022-10-16T08:53:55;3.67;;;1.65;;
39848;SDS011;25518;47.878;15.914;2022-10-16T08:56:24;6.40;;;2.30;;
39848;SDS011;25518;47.878;15.914;2022-10-16T08:58:51;5.00;;;2.30;;
39848;SDS011;25518;47.878;15.914;2022-10-16T09:01:19;3.67;;;1.90;;
39848;SDS011;25518;47.878;15.914;2022-10-16T09:12:15;4.30;;;2.30;;
39848;SDS011;25518;47.878;15.914;2022-10-16T09:14:42;5.50;;;2.05;;
39848;SDS011;25518;47.878;15.914;2022-10-16T09:17:18;5.80;;;2.45;;
39848;SDS011;25518;47.878;15.914;2022-10-16T09:19:50;4.57;;;2.15;;
39848;SDS011;25518;47.878;15.914;2022-10-16T09:22:17;5.57;;;2.10;;
39848;SDS011;25518;47.878;15.914;2022-10-16T09:24:44;5.10;;;2.20;;
39848;SDS011;25518;47.878;15.914;2022-10-16T09:27:12;4.28;;;2.35;;
39848;SDS011;25518;47.878;15.914;2022-10-16T09:29:39;4.80;;;2.17;;
39848;SDS011;25518;47.878;15.914;2022-10-16T09:32:14;6.80;;;2.40;;
39848;SDS011;25518;47.878;15.914;2022-10-16T09:34:43;4.40;;;2.22;;
39848;SDS011;25518;47.878;15.914;2022-10-16T09:37:12;5.07;;;2.27;;
39848;SDS011;25518;47.878;15.914;2022-10-16T09:39:47;5.25;;;2.40;;
39848;SDS011;25518;47.878;15.914;2022-10-16T09:42:15;5.03;;;2.50;;
39848;SDS011;25518;47.878;15.914;2022-10-16T09:44:41;5.10;;;2.47;;
39848;SDS011;25518;47.878;15.914;2022-10-16T09:47:24;4.80;;;2.50;;
39848;SDS011;25518;47.878;15.914;2022-10-16T09:49:55;4.97;;;2.50;;
39848;SDS011;25518;47.878;15.914;2022-10-16T09:52:24;4.45;;;2.25;;
39848;SDS011;25518;47.878;15.914;2022-10-16T09:57:17;4.90;;;2.55;;
39848;SDS011;25518;47.878;15.914;2022-10-16T09:59:46;4.85;;;3.10;;
39848;SDS011;25518;47.878;15.914;2022-10-16T10:02:13;5.17;;;2.20;;
39848;SDS011;25518;47.878;15.914;2022-10-16T10:04:42;4.63;;;2.30;;
39848;SDS011;25518;47.878;15.914;2022-10-16T10:07:19;5.03;;;2.10;;
39848;SDS011;25518;47.878;15.914;2022-10-16T10:09:47;3.20;;;1.60;;
39848;SDS011;25518;47.878;15.914;2022-10-16T10:12:29;3.58;;;1.85;;
39848;SDS011;25518;47.878;15.914;2022-10-16T10:14:58;3.30;;;1.70;;
39848;SDS011;25518;47.878;15.914;2022-10-16T10:17:29;4.15;;;2.35;;
39848;SDS011;25518;47.878;15.914;2022-10-16T10:19:57;6.57;;;1.90;;
39848;SDS011;25518;47.878;15.914;2022-10-16T10:22:27;3.13;;;1.58;;
39848;SDS011;25518;47.878;15.914;2022-10-16T10:27:21;3.45;;;1.88;;
39848;SDS011;25518;47.878;15.914;2022-10-16T10:29:59;3.65;;;1.60;;
39848;SDS011;25518;47.878;15.914;2022-10-16T10:37:27;2.67;;;1.40;;
39848;SDS011;25518;47.878;15.914;2022-10-16T10:40:00;4.20;;;1.45;;
39848;SDS011;25518;47.878;15.914;2022-10-16T10:42:31;2.60;;;1.23;;
39848;SDS011;25518;47.878;15.914;2022-10-16T10:45:08;3.47;;;1.40;;
39848;SDS011;25518;47.878;15.914;2022-10-16T10:50:12;2.47;;;1.40;;
39848;SDS011;25518;47.878;15.914;2022-10-16T10:53:03;2.75;;;1.30;;
39848;SDS011;25518;47.878;15.914;2022-10-16T10:55:54;3.72;;;1.23;;
39848;SDS011;25518;47.878;15.914;2022-10-16T10:58:57;2.75;;;1.25;;
39848;SDS011;25518;47.878;15.914;2022-10-16T11:04:19;4.95;;;1.40;;
39848;SDS011;25518;47.878;15.914;2022-10-16T11:07:00;2.42;;;1.05;;
39848;SDS011;25518;47.878;15.914;2022-10-16T11:09:32;2.88;;;1.40;;
39848;SDS011;25518;47.878;15.914;2022-10-16T11:14:35;3.80;;;1.40;;
39848;SDS011;25518;47.878;15.914;2022-10-16T11:17:08;4.07;;;1.13;;
39848;SDS011;25518;47.878;15.914;2022-10-16T11:19:48;2.05;;;1.10;;
39848;SDS011;25518;47.878;15.914;2022-10-16T11:25:04;2.60;;;1.30;;
39848;SDS011;25518;47.878;15.914;2022-10-16T11:27:45;2.17;;;1.10;;
39848;SDS011;25518;47.878;15.914;2022-10-16T11:38:22;2.23;;;1.23;;
39848;SDS011;25518;47.878;15.914;2022-10-16T11:44:19;3.10;;;1.40;;
39848;SDS011;25518;47.878;15.914;2022-10-16T11:47:01;2.65;;;1.30;;
39848;SDS011;25518;47.878;15.914;2022-10-16T11:49:30;3.20;;;1.40;;
39848;SDS011;25518;47.878;15.914;2022-10-16T11:52:07;2.33;;;1.40;;
39848;SDS011;25518;47.878;15.914;2022-10-16T11:54:59;2.60;;;1.60;;
39848;SDS011;25518;47.878;15.914;2022-10-16T11:57:27;5.45;;;1.80;;
39848;SDS011;25518;47.878;15.914;2022-10-16T12:00:02;4.95;;;1.90;;
39848;SDS011;25518;47.878;15.914;2022-10-16T12:05:58;5.35;;;3.00;;
39848;SDS011;25518;47.878;15.914;2022-10-16T12:08:48;6.10;;;3.90;;
39848;SDS011;25518;47.878;15.914;2022-10-16T12:11:33;6.47;;;4.20;;
39848;SDS011;25518;47.878;15.914;2022-10-16T12:14:06;6.40;;;4.47;;
39848;SDS011;25518;47.878;15.914;2022-10-16T12:16:37;7.13;;;4.72;;
39848;SDS011;25518;47.878;15.914;2022-10-16T12:19:13;7.47;;;5.13;;
39848;SDS011;25518;47.878;15.914;2022-10-16T12:21:41;8.07;;;5.45;;
39848;SDS011;25518;47.878;15.914;2022-10-16T12:24:39;6.97;;;4.90;;
39848;SDS011;25518;47.878;15.914;2022-10-16T12:27:03;7.88;;;5.57;;
39848;SDS011;25518;47.878;15.914;2022-10-16T12:29:33;9.68;;;5.75;;
39848;SDS011;25518;47.878;15.914;2022-10-16T12:32:38;9.23;;;5.70;;
39848;SDS011;25518;47.878;15.914;2022-10-16T12:34:53;9.82;;;6.82;;
39848;SDS011;25518;47.878;15.914;2022-10-16T12:37:22;9.77;;;6.63;;
39848;SDS011;25518;47.878;15.914;2022-10-16T12:39:51;9.67;;;6.97;;
39848;SDS011;25518;47.878;15.914;2022-10-16T12:42:30;11.93;;;7.93;;
39848;SDS011;25518;47.878;15.914;2022-10-16T12:44:59;10.75;;;7.60;;
39848;SDS011;25518;47.878;15.914;2022-10-16T12:49:59;11.38;;;8.13;;
39848;SDS011;25518;47.878;15.914;2022-10-16T12:52:26;11.43;;;8.38;;
39848;SDS011;25518;47.878;15.914;2022-10-16T12:55:00;12.50;;;8.80;;
39848;SDS011;25518;47.878;15.914;2022-10-16T13:00:04;12.25;;;9.13;;
39848;SDS011;25518;47.878;15.914;2022-10-16T13:06:00;13.05;;;8.95;;
39848;SDS011;25518;47.878;15.914;2022-10-16T13:09:08;13.00;;;9.38;;
39848;SDS011;25518;47.878;15.914;2022-10-16T13:14:09;13.83;;;9.50;;
39848;SDS011;25518;47.878;15.914;2022-10-16T13:19:34;14.23;;;10.40;;
39848;SDS011;25518;47.878;15.914;2022-10-16T13:25:02;14.38;;;10.25;;
39848;SDS011;25518;47.878;15.914;2022-10-16T13:30:25;15.13;;;11.00;;
39848;SDS011;25518;47.878;15.914;2022-10-16T13:32:58;14.80;;;11.20;;
39848;SDS011;25518;47.878;15.914;2022-10-16T13:35:26;14.98;;;10.88;;
39848;SDS011;25518;47.878;15.914;2022-10-16T13:38:03;15.90;;;11.55;;
39848;SDS011;25518;47.878;15.914;2022-10-16T13:41:03;15.85;;;11.90;;
39848;SDS011;25518;47.878;15.914;2022-10-16T13:43:35;15.73;;;11.38;;
39848;SDS011;25518;47.878;15.914;2022-10-16T13:46:04;15.60;;;11.40;;
39848;SDS011;25518;47.878;15.914;2022-10-16T13:48:32;17.08;;;11.80;;
39848;SDS011;25518;47.878;15.914;2022-10-16T13:51:00;15.65;;;11.70;;
39848;SDS011;25518;47.878;15.914;2022-10-16T13:53:29;17.40;;;12.40;;
39848;SDS011;25518;47.878;15.914;2022-10-16T13:55:56;15.52;;;11.55;;
39848;SDS011;25518;47.878;15.914;2022-10-16T13:58:22;15.18;;;11.70;;
39848;SDS011;25518;47.878;15.914;2022-10-16T14:00:56;16.53;;;12.30;;
39848;SDS011;25518;47.878;15.914;2022-10-16T14:03:26;15.40;;;12.25;;
39848;SDS011;25518;47.878;15.914;2022-10-16T14:05:54;16.73;;;12.43;;
39848;SDS011;25518;47.878;15.914;2022-10-16T14:08:23;18.60;;;12.88;;
39848;SDS011;25518;47.878;15.914;2022-10-16T14:10:51;17.25;;;12.82;;
39848;SDS011;25518;47.878;15.914;2022-10-16T14:13:23;18.10;;;13.40;;
39848;SDS011;25518;47.878;15.914;2022-10-16T14:15:56;18.92;;;14.05;;
39848;SDS011;25518;47.878;15.914;2022-10-16T14:18:24;18.37;;;13.07;;
39848;SDS011;25518;47.878;15.914;2022-10-16T14:20:52;19.48;;;14.18;;
39848;SDS011;25518;47.878;15.914;2022-10-16T14:25:47;21.30;;;14.48;;
39848;SDS011;25518;47.878;15.914;2022-10-16T14:28:15;17.17;;;13.77;;
39848;SDS011;25518;47.878;15.914;2022-10-16T14:30:59;20.08;;;14.35;;
39848;SDS011;25518;47.878;15.914;2022-10-16T14:38:30;19.85;;;15.18;;
39848;SDS011;25518;47.878;15.914;2022-10-16T14:40:58;23.33;;;15.77;;
39848;SDS011;25518;47.878;15.914;2022-10-16T14:43:28;19.25;;;14.02;;
39848;SDS011;25518;47.878;15.914;2022-10-16T14:45:59;20.00;;;14.70;;
39848;SDS011;25518;47.878;15.914;2022-10-16T14:48:27;18.10;;;13.67;;
39848;SDS011;25518;47.878;15.914;2022-10-16T14:50:54;20.77;;;15.05;;
39848;SDS011;25518;47.878;15.914;2022-10-16T14:53:20;19.02;;;14.45;;
39848;SDS011;25518;47.878;15.914;2022-10-16T14:55:46;20.13;;;14.90;;
39848;SDS011;25518;47.878;15.914;2022-10-16T14:58:14;19.35;;;14.25;;
39848;SDS011;25518;47.878;15.914;2022-10-16T15:00:41;20.00;;;15.88;;
39848;SDS011;25518;47.878;15.914;2022-10-16T15:03:07;20.42;;;15.48;;
39848;SDS011;25518;47.878;15.914;2022-10-16T15:05:33;21.67;;;15.40;;
39848;SDS011;25518;47.878;15.914;2022-10-16T15:07:59;21.60;;;15.43;;
39848;SDS011;25518;47.878;15.914;2022-10-16T15:10:25;21.88;;;16.13;;
39848;SDS011;25518;47.878;15.914;2022-10-16T15:12:54;23.80;;;17.52;;
39848;SDS011;25518;47.878;15.914;2022-10-16T15:17:49;24.20;;;17.45;;
39848;SDS011;25518;47.878;15.914;2022-10-16T15:20:18;25.15;;;17.52;;
39848;SDS011;25518;47.878;15.914;2022-10-16T15:22:45;23.50;;;16.88;;
39848;SDS011;25518;47.878;15.914;2022-10-16T15:25:29;23.50;;;16.27;;
39848;SDS011;25518;47.878;15.914;2022-10-16T15:28:01;21.52;;;15.20;;
39848;SDS011;25518;47.878;15.914;2022-10-16T15:30:29;29.13;;;16.38;;
39848;SDS011;25518;47.878;15.914;2022-10-16T15:32:55;21.77;;;15.50;;
39848;SDS011;25518;47.878;15.914;2022-10-16T15:35:21;23.40;;;15.70;;
39848;SDS011;25518;47.878;15.914;2022-10-16T15:37:47;24.23;;;16.80;;
39848;SDS011;25518;47.878;15.914;2022-10-16T15:40:14;26.55;;;16.63;;
39848;SDS011;25518;47.878;15.914;2022-10-16T15:42:41;25.53;;;16.07;;
39848;SDS011;25518;47.878;15.914;2022-10-16T15:45:08;23.77;;;16.40;;
39848;SDS011;25518;47.878;15.914;2022-10-16T15:47:35;27.10;;;17.55;;
39848;SDS011;25518;47.878;15.914;2022-10-16T15:50:01;28.33;;;17.70;;
39848;SDS011;25518;47.878;15.914;2022-10-16T15:52:27;27.83;;;18.98;;
39848;SDS011;25518;47.878;15.914;2022-10-16T15:54:54;31.83;;;20.02;;
39848;SDS011;25518;47.878;15.914;2022-10-16T15:57:20;25.87;;;17.57;;
39848;SDS011;25518;47.878;15.914;2022-10-16T15:59:46;23.77;;;15.63;;
39848;SDS011;25518;47.878;15.914;2022-10-16T16:02:12;26.58;;;17.23;;
39848;SDS011;25518;47.878;15.914;2022-10-16T16:04:38;24.45;;;16.67;;
39848;SDS011;25518;47.878;15.914;2022-10-16T16:07:04;25.38;;;16.88;;
39848;SDS011;25518;47.878;15.914;2022-10-16T16:09:32;25.43;;;16.77;;
39848;SDS011;25518;47.878;15.914;2022-10-16T16:11:58;25.58;;;17.30;;
39848;SDS011;25518;47.878;15.914;2022-10-16T16:14:26;27.77;;;18.27;;
39848;SDS011;25518;47.878;15.914;2022-10-16T16:16:54;26.90;;;18.90;;
39848;SDS011;25518;47.878;15.914;2022-10-16T16:19:21;26.17;;;17.20;;